Terminal Aerodrome Forecast
Issued by NWS

Home | Current Version | Previous Version | Text Only | Print | Product List | Glossary On
Versions: 1 2 3 4 5 6 7 8 9 10 11 12 13 14 15
000
FTUS43 KPAH 111700
TAFCGI
TAF
KCGI 111734Z 1118/1218 VRB04KT P6SM SCT050 SCT250
     FM120600 00000KT 4SM BR SCT150
     FM121400 21005KT P6SM SCT050 BKN120=

USA.gov is the U.S. government's official web portal to all federal, state and local government web resources and services.